Galeton, Colorado
Current Conditions -  °F | °C
As of 6:35 AM on Saturday 25 Oct 2014 (Local Time) from KGXY Reporting Station
Clear Clear  
Wind Chill: 34°   Ceiling: Unl
Heat Index: 34°   Visibility: 10mi
Dew Point: 25°   Wind: 0mph
Humidity: 70%   Direction: NA
Pressure: 30.22"   Gusts: NA
Location:  40.52°N, 104.59°W
Report Text: KGXY 251235Z AUTO 00000KT 10SM CLR 01/M04 A3022 RMK AO1
Loading
Personal Weather Stations






























Interactive Weather Map New forecast layout! Learn more

10-Day Weather Forecast

Advertisements
Track Severe Weather on mobile